createdAt,value
2019-01-30T00:00:48.924Z,1.13
2019-01-30T00:01:48.905Z,1.14
2019-01-30T00:02:48.890Z,1.12
2019-01-30T00:03:48.878Z,1.13
2019-01-30T00:04:48.868Z,1.12
2019-01-30T00:05:48.851Z,1.13
2019-01-30T00:06:48.836Z,1.17
2019-01-30T00:07:48.827Z,1.14
2019-01-30T00:08:48.805Z,1.16
2019-01-30T00:09:48.793Z,1.10
2019-01-30T00:10:48.781Z,1.12
2019-01-30T00:11:48.769Z,1.20
2019-01-30T00:12:48.750Z,1.20
2019-01-30T00:13:48.740Z,1.19
2019-01-30T00:14:48.727Z,1.14
2019-01-30T00:15:55.982Z,1.13
2019-01-30T00:16:48.697Z,1.13
2019-01-30T00:17:48.686Z,1.17
2019-01-30T00:18:48.671Z,1.12
2019-01-30T00:19:48.655Z,1.17
2019-01-30T00:20:48.640Z,1.16
2019-01-30T00:21:48.627Z,1.08
2019-01-30T00:22:48.612Z,1.13
2019-01-30T00:23:48.595Z,1.08
2019-01-30T00:24:48.582Z,1.13
2019-01-30T00:25:48.570Z,1.08
2019-01-30T00:26:48.559Z,1.19
2019-01-30T00:27:48.544Z,1.10
2019-01-30T00:28:48.533Z,1.05
2019-01-30T00:29:48.516Z,1.10
2019-01-30T00:30:48.505Z,1.13
2019-01-30T00:31:48.485Z,1.06
2019-01-30T00:32:48.477Z,1.02
2019-01-30T00:33:48.458Z,1.02
2019-01-30T00:34:48.445Z,0.96
2019-01-30T00:35:48.431Z,1.01
2019-01-30T00:36:48.411Z,0.98
2019-01-30T00:37:48.406Z,1.06
2019-01-30T00:38:48.388Z,0.98
2019-01-30T00:39:48.375Z,0.95
2019-01-30T00:40:48.363Z,1.04
2019-01-30T00:41:48.350Z,0.98
2019-01-30T00:42:48.331Z,1.05
2019-01-30T00:43:48.313Z,1.14
2019-01-30T00:44:48.309Z,0.92
2019-01-30T00:45:48.289Z,1.05
2019-01-30T00:46:48.274Z,1.05
2019-01-30T00:47:48.260Z,0.98
2019-01-30T00:48:48.252Z,0.95
2019-01-30T00:49:48.234Z,1.01
2019-01-30T00:50:48.218Z,0.99
2019-01-30T00:51:48.237Z,0.95
2019-01-30T00:52:48.217Z,1.04
2019-01-30T00:53:48.178Z,1.05
2019-01-30T00:54:48.163Z,1.01
2019-01-30T00:55:48.151Z,0.95
2019-01-30T00:56:48.135Z,1.05
2019-01-30T00:57:48.117Z,0.94
2019-01-30T00:58:48.107Z,0.94
2019-01-30T00:59:48.090Z,1.01
2019-01-30T01:00:48.077Z,1.02
2019-01-30T01:01:48.069Z,1.04
2019-01-30T01:02:48.051Z,1.04
2019-01-30T01:03:48.038Z,0.99
2019-01-30T01:04:48.024Z,1.13
2019-01-30T01:05:48.002Z,1.12
2019-01-30T01:06:47.990Z,1.02
2019-01-30T01:07:47.979Z,0.99
2019-01-30T01:08:47.967Z,1.04
2019-01-30T01:09:47.951Z,1.01
2019-01-30T01:10:47.938Z,1.10
2019-01-30T01:11:47.918Z,1.12
2019-01-30T01:12:47.908Z,1.04
2019-01-30T01:13:47.888Z,1.19
2019-01-30T01:14:47.880Z,1.13
2019-01-30T01:15:47.866Z,1.13
2019-01-30T01:16:47.849Z,1.12
2019-01-30T01:17:47.837Z,1.17
2019-01-30T01:18:47.827Z,1.06
2019-01-30T01:19:47.801Z,1.14
2019-01-30T01:20:47.795Z,1.06
2019-01-30T01:21:47.778Z,1.04
2019-01-30T01:22:47.764Z,1.01
2019-01-30T01:23:47.753Z,1.02
2019-01-30T01:24:47.738Z,1.10
2019-01-30T01:25:47.725Z,1.08
2019-01-30T01:26:47.708Z,1.13
2019-01-30T01:27:47.691Z,1.13
2019-01-30T01:28:47.679Z,1.13
2019-01-30T01:29:47.667Z,1.10
2019-01-30T01:30:47.655Z,1.17
2019-01-30T01:31:47.639Z,1.04
2019-01-30T01:32:47.625Z,1.14
2019-01-30T01:33:47.606Z,1.05
2019-01-30T01:34:47.592Z,1.06
2019-01-30T01:35:47.581Z,1.06
2019-01-30T01:36:47.571Z,0.99
2019-01-30T01:37:47.553Z,1.17
2019-01-30T01:38:47.542Z,1.05
2019-01-30T01:39:47.518Z,1.14
2019-01-30T01:40:47.507Z,1.13
2019-01-30T01:41:47.498Z,0.98
2019-01-30T01:42:47.483Z,0.99
2019-01-30T01:43:47.469Z,1.02
2019-01-30T01:44:47.460Z,1.04
2019-01-30T01:45:47.442Z,1.05
2019-01-30T01:46:47.424Z,1.17
2019-01-30T01:47:47.410Z,1.13
2019-01-30T01:48:47.394Z,0.99
2019-01-30T01:49:47.384Z,1.04
2019-01-30T01:50:47.369Z,1.14
2019-01-30T01:51:47.357Z,1.10
2019-01-30T01:52:47.345Z,1.08
2019-01-30T01:53:47.329Z,1.08
2019-01-30T01:54:47.317Z,1.10
2019-01-30T01:55:47.299Z,1.10
2019-01-30T01:56:47.286Z,1.10
2019-01-30T01:57:47.273Z,1.10
2019-01-30T01:58:47.260Z,1.08
2019-01-30T01:59:47.245Z,1.13
2019-01-30T02:00:47.227Z,1.16
2019-01-30T02:01:47.215Z,1.13
2019-01-30T02:02:47.203Z,1.10
2019-01-30T02:03:47.188Z,1.14
2019-01-30T02:04:47.175Z,1.16
2019-01-30T02:05:47.161Z,1.08
2019-01-30T02:06:47.149Z,1.16
2019-01-30T02:07:47.129Z,1.20
2019-01-30T02:08:47.116Z,1.12
2019-01-30T02:09:47.102Z,1.14
2019-01-30T02:10:47.088Z,1.13
2019-01-30T02:11:47.073Z,1.16
2019-01-30T02:12:47.062Z,1.08
2019-01-30T02:13:47.049Z,1.14
2019-01-30T02:14:47.034Z,1.17
2019-01-30T02:15:47.012Z,1.16
2019-01-30T02:16:47.009Z,1.14
2019-01-30T02:17:46.990Z,1.13
2019-01-30T02:18:46.979Z,1.06
2019-01-30T02:19:46.961Z,1.13
2019-01-30T02:20:46.948Z,1.08
2019-01-30T02:21:46.933Z,1.16
2019-01-30T02:22:46.918Z,1.13
2019-01-30T02:23:46.904Z,1.14
2019-01-30T02:24:46.894Z,1.10
2019-01-30T02:25:46.882Z,1.14
2019-01-30T02:26:46.867Z,1.14
2019-01-30T02:27:46.846Z,1.13
2019-01-30T02:28:46.831Z,1.16
2019-01-30T02:29:46.824Z,1.13
2019-01-30T02:30:47.821Z,1.13
2019-01-30T02:31:46.799Z,1.13
2019-01-30T02:32:46.780Z,1.10
2019-01-30T02:33:46.763Z,1.16
2019-01-30T02:34:46.755Z,1.19
2019-01-30T02:35:46.736Z,1.14
2019-01-30T02:36:46.724Z,1.12
2019-01-30T02:37:46.707Z,1.19
2019-01-30T02:38:46.691Z,1.13
2019-01-30T02:39:46.680Z,1.12
2019-01-30T02:40:46.664Z,1.13
2019-01-30T02:41:46.650Z,1.08
2019-01-30T02:42:46.648Z,1.05
2019-01-30T02:43:47.374Z,1.13
2019-01-30T02:44:46.608Z,1.12
2019-01-30T02:45:46.597Z,1.17
2019-01-30T02:46:46.579Z,1.05
2019-01-30T02:47:46.567Z,1.19
2019-01-30T02:48:46.553Z,1.19
2019-01-30T02:49:46.542Z,1.12
2019-01-30T02:50:46.523Z,1.05
2019-01-30T02:51:46.506Z,1.04
2019-01-30T02:52:46.495Z,0.99
2019-01-30T02:53:46.482Z,1.02
2019-01-30T02:54:46.468Z,0.96
2019-01-30T02:55:46.452Z,1.12
2019-01-30T02:56:47.369Z,1.02
2019-01-30T02:57:46.425Z,0.98
2019-01-30T02:58:46.411Z,0.99
2019-01-30T02:59:46.393Z,0.96
2019-01-30T03:00:46.382Z,1.04
2019-01-30T03:01:46.371Z,0.92
2019-01-30T03:02:46.356Z,1.06
2019-01-30T03:03:46.337Z,0.95
2019-01-30T03:04:46.324Z,0.96
2019-01-30T03:05:46.314Z,1.02
2019-01-30T03:06:46.304Z,0.95
2019-01-30T03:07:46.287Z,1.04
2019-01-30T03:08:46.271Z,1.04
2019-01-30T03:09:46.258Z,1.01
2019-01-30T03:10:46.243Z,1.08
2019-01-30T03:11:46.227Z,0.99
2019-01-30T03:12:46.881Z,1.05
2019-01-30T03:13:46.198Z,0.98
2019-01-30T03:14:46.187Z,0.98
2019-01-30T03:15:46.174Z,0.99
2019-01-30T03:16:46.218Z,1.05
2019-01-30T03:17:46.138Z,1.02
2019-01-30T03:18:46.129Z,0.98
2019-01-30T03:19:46.114Z,0.94
2019-01-30T03:20:46.102Z,0.87
2019-01-30T03:21:46.085Z,0.91
2019-01-30T03:22:46.069Z,1.10
2019-01-30T03:23:46.058Z,1.04
2019-01-30T03:24:46.043Z,1.02
2019-01-30T03:25:46.034Z,1.04
2019-01-30T03:26:46.016Z,1.01
2019-01-30T03:27:46.001Z,1.02
2019-01-30T03:28:45.989Z,0.99
2019-01-30T03:29:45.979Z,0.99
2019-01-30T03:30:45.965Z,1.02
2019-01-30T03:31:45.946Z,0.94
2019-01-30T03:32:45.943Z,0.96
2019-01-30T03:33:45.914Z,1.06
2019-01-30T03:34:45.900Z,0.92
2019-01-30T03:35:45.888Z,1.01
2019-01-30T03:36:45.872Z,1.01
2019-01-30T03:37:45.861Z,1.08
2019-01-30T03:38:45.842Z,1.04
2019-01-30T03:39:45.829Z,0.99
2019-01-30T03:40:45.817Z,0.98
2019-01-30T03:41:45.802Z,0.98
2019-01-30T03:42:45.791Z,1.04
2019-01-30T03:43:45.775Z,1.02
2019-01-30T03:44:45.764Z,1.01
2019-01-30T03:45:45.749Z,0.94
2019-01-30T03:46:45.734Z,1.02
2019-01-30T03:47:45.719Z,1.06
2019-01-30T03:48:45.702Z,1.04
2019-01-30T03:49:45.691Z,0.95
2019-01-30T03:50:45.679Z,0.95
2019-01-30T03:51:45.661Z,1.02
2019-01-30T03:52:45.650Z,0.95
2019-01-30T03:53:45.635Z,0.95
2019-01-30T03:54:45.620Z,1.02
2019-01-30T03:55:45.605Z,1.01
2019-01-30T03:56:45.591Z,0.95
2019-01-30T03:57:45.578Z,0.98
2019-01-30T03:58:45.563Z,0.99
2019-01-30T03:59:45.543Z,1.05
2019-01-30T04:00:45.536Z,1.10
2019-01-30T04:01:45.520Z,1.01
2019-01-30T04:02:45.502Z,0.96
2019-01-30T04:03:45.492Z,1.08
2019-01-30T04:04:45.478Z,0.99
2019-01-30T04:05:45.462Z,1.01
2019-01-30T04:06:45.449Z,1.08
2019-01-30T04:07:45.437Z,0.98
2019-01-30T04:08:45.417Z,0.99
2019-01-30T04:09:45.403Z,1.02
2019-01-30T04:10:45.394Z,0.98
2019-01-30T04:11:45.381Z,1.05
2019-01-30T04:12:45.363Z,0.94
2019-01-30T04:13:45.347Z,1.04
2019-01-30T04:14:45.338Z,0.96
2019-01-30T04:15:45.322Z,1.05
2019-01-30T04:16:45.312Z,0.92
2019-01-30T04:17:45.297Z,0.99
2019-01-30T04:18:45.278Z,0.96
2019-01-30T04:19:45.287Z,0.91
2019-01-30T04:20:45.249Z,1.01
2019-01-30T04:21:45.235Z,1.04
2019-01-30T04:22:45.222Z,1.04
2019-01-30T04:23:45.208Z,0.92
2019-01-30T04:24:45.197Z,1.13
2019-01-30T04:25:45.185Z,0.99
2019-01-30T04:26:45.171Z,0.95
2019-01-30T04:27:45.151Z,1.04
2019-01-30T04:28:45.141Z,1.08
2019-01-30T04:29:45.129Z,1.02
2019-01-30T04:30:45.111Z,0.96
2019-01-30T04:31:45.102Z,0.99
2019-01-30T04:32:45.080Z,1.02
2019-01-30T04:33:45.072Z,0.98
2019-01-30T04:34:45.054Z,1.05
2019-01-30T04:35:45.041Z,1.01
2019-01-30T04:36:45.026Z,0.95
2019-01-30T04:37:45.010Z,1.01
2019-01-30T04:38:44.998Z,0.99
2019-01-30T04:39:44.979Z,1.06
2019-01-30T04:40:44.971Z,1.02
2019-01-30T04:41:44.955Z,1.02
2019-01-30T04:42:44.937Z,1.14
2019-01-30T04:43:44.922Z,0.99
2019-01-30T04:44:44.912Z,1.04
2019-01-30T04:45:44.899Z,1.13
2019-01-30T04:46:44.884Z,1.17
2019-01-30T04:47:44.870Z,1.13
2019-01-30T04:48:44.854Z,1.08
2019-01-30T04:49:44.846Z,1.01
2019-01-30T04:50:44.829Z,1.05
2019-01-30T04:51:44.813Z,1.16
2019-01-30T04:52:44.806Z,1.13
2019-01-30T04:53:44.790Z,1.10
2019-01-30T04:54:45.322Z,1.13
2019-01-30T04:55:44.759Z,1.01
2019-01-30T04:56:44.745Z,1.06
2019-01-30T04:57:44.729Z,1.12
2019-01-30T04:58:44.714Z,1.13
2019-01-30T04:59:44.706Z,1.04
2019-01-30T05:00:44.693Z,1.02
2019-01-30T05:01:49.824Z,0.98
2019-01-30T05:02:44.657Z,0.96
2019-01-30T05:03:44.647Z,1.02
2019-01-30T05:04:44.627Z,1.02
2019-01-30T05:05:44.613Z,1.02
2019-01-30T05:06:44.599Z,0.99
2019-01-30T05:07:44.586Z,1.06
2019-01-30T05:08:44.573Z,1.13
2019-01-30T05:09:44.560Z,0.99
2019-01-30T05:10:44.540Z,1.06
2019-01-30T05:11:44.528Z,1.06
2019-01-30T05:12:44.521Z,1.17
2019-01-30T05:13:44.506Z,1.16
2019-01-30T05:14:44.488Z,1.04
2019-01-30T05:15:44.473Z,1.04
2019-01-30T05:16:44.456Z,0.98
2019-01-30T05:17:44.447Z,0.98
2019-01-30T05:18:44.434Z,1.01
2019-01-30T05:19:44.415Z,0.96
2019-01-30T05:20:44.404Z,1.04
2019-01-30T05:21:44.395Z,0.96
2019-01-30T05:22:44.370Z,1.02
2019-01-30T05:23:44.364Z,0.98
2019-01-30T05:24:44.347Z,0.98
2019-01-30T05:25:44.336Z,0.95
2019-01-30T05:26:44.322Z,1.02
2019-01-30T05:27:44.303Z,1.02
2019-01-30T05:28:44.291Z,0.99
2019-01-30T05:29:44.277Z,0.99
2019-01-30T05:30:44.258Z,1.04
2019-01-30T05:31:44.247Z,1.05
2019-01-30T05:32:44.233Z,0.94
2019-01-30T05:33:44.217Z,0.95
2019-01-30T05:34:44.206Z,0.95
2019-01-30T05:35:44.195Z,0.94
2019-01-30T05:36:44.172Z,0.96
2019-01-30T05:37:44.158Z,1.04
2019-01-30T05:38:44.144Z,0.94
2019-01-30T05:39:44.127Z,0.99
2019-01-30T05:40:44.120Z,0.88
2019-01-30T05:41:44.105Z,0.96
2019-01-30T05:42:44.091Z,0.99
2019-01-30T05:43:44.082Z,0.96
2019-01-30T05:44:44.057Z,0.96
2019-01-30T05:45:44.043Z,0.94
2019-01-30T05:46:44.029Z,0.84
2019-01-30T05:47:44.015Z,0.96
2019-01-30T05:48:44.005Z,0.83
2019-01-30T05:49:43.991Z,0.81
2019-01-30T05:50:43.974Z,0.92
2019-01-30T05:51:43.961Z,0.92
2019-01-30T05:52:43.946Z,0.95
2019-01-30T05:53:43.935Z,0.98
2019-01-30T05:54:43.919Z,0.99
2019-01-30T05:55:43.903Z,0.88
2019-01-30T05:56:43.887Z,0.87
2019-01-30T05:57:43.874Z,0.84
2019-01-30T05:58:43.861Z,0.83
2019-01-30T05:59:43.845Z,0.87
2019-01-30T06:00:43.832Z,0.83
2019-01-30T06:01:43.817Z,0.83
2019-01-30T06:02:43.798Z,0.94
2019-01-30T06:03:43.789Z,0.84
2019-01-30T06:04:43.774Z,0.88
2019-01-30T06:05:43.762Z,0.87
2019-01-30T06:06:43.744Z,0.86
2019-01-30T06:07:43.725Z,0.86
2019-01-30T06:08:43.714Z,0.87
2019-01-30T06:09:43.701Z,0.88
2019-01-30T06:10:43.691Z,0.87
2019-01-30T06:11:43.698Z,0.83
2019-01-30T06:12:43.659Z,0.81
2019-01-30T06:13:43.644Z,0.88
2019-01-30T06:14:43.630Z,0.88
2019-01-30T06:15:43.614Z,0.87
2019-01-30T06:16:43.602Z,0.87
2019-01-30T06:17:43.591Z,0.88
2019-01-30T06:18:43.575Z,0.84
2019-01-30T06:19:43.560Z,0.87
2019-01-30T06:20:43.562Z,0.92
2019-01-30T06:21:43.532Z,0.80
2019-01-30T06:22:43.514Z,0.83
2019-01-30T06:23:43.509Z,0.88
2019-01-30T06:24:43.487Z,0.83
2019-01-30T06:25:43.474Z,0.81
2019-01-30T06:26:43.459Z,0.83
2019-01-30T06:27:43.439Z,0.91
2019-01-30T06:28:43.427Z,0.98
2019-01-30T06:29:43.417Z,0.94
2019-01-30T06:30:43.402Z,0.96
2019-01-30T06:31:43.387Z,0.98
2019-01-30T06:32:43.366Z,0.98
2019-01-30T06:33:43.362Z,0.92
2019-01-30T06:34:43.342Z,0.94
2019-01-30T06:35:43.330Z,0.96
2019-01-30T06:36:43.314Z,0.99
2019-01-30T06:37:43.303Z,0.99
2019-01-30T06:38:43.285Z,0.99
2019-01-30T06:39:43.309Z,0.99
2019-01-30T06:40:43.285Z,0.99
2019-01-30T06:41:43.244Z,0.95
2019-01-30T06:42:43.229Z,0.98
2019-01-30T06:43:43.215Z,0.98
2019-01-30T06:44:43.203Z,1.01
2019-01-30T06:45:43.188Z,1.01
2019-01-30T06:46:43.172Z,0.91
2019-01-30T06:47:43.152Z,0.95
2019-01-30T06:48:43.144Z,0.94
2019-01-30T06:49:43.131Z,1.05
2019-01-30T06:50:43.117Z,1.01
2019-01-30T06:51:43.100Z,1.02
2019-01-30T06:52:43.086Z,1.02
2019-01-30T06:53:43.071Z,0.95
2019-01-30T06:54:43.055Z,1.05
2019-01-30T06:55:43.041Z,0.99
2019-01-30T06:56:43.030Z,0.96
2019-01-30T06:57:43.016Z,1.02
2019-01-30T06:58:43.003Z,1.04
2019-01-30T06:59:42.985Z,0.98
2019-01-30T07:00:42.970Z,1.10
2019-01-30T07:01:42.960Z,1.04
2019-01-30T07:02:42.943Z,1.10
2019-01-30T07:03:42.928Z,1.10
2019-01-30T07:04:42.913Z,1.04
2019-01-30T07:05:42.904Z,1.10
2019-01-30T07:06:42.893Z,1.01
2019-01-30T07:07:42.868Z,1.19
2019-01-30T07:08:42.852Z,1.02
2019-01-30T07:09:42.848Z,1.02
2019-01-30T07:10:42.827Z,1.02
2019-01-30T07:11:42.813Z,1.12
2019-01-30T07:12:42.802Z,1.12
2019-01-30T07:13:42.788Z,1.10
2019-01-30T07:14:42.775Z,1.16
2019-01-30T07:15:42.756Z,1.19
2019-01-30T07:16:42.746Z,1.16
2019-01-30T07:17:42.734Z,1.19
2019-01-30T07:18:42.718Z,1.19
2019-01-30T07:19:42.702Z,1.13
2019-01-30T07:20:42.780Z,1.13
2019-01-30T07:21:42.670Z,1.13
2019-01-30T07:22:42.658Z,1.17
2019-01-30T07:23:42.642Z,1.12
2019-01-30T07:24:42.640Z,1.14
2019-01-30T07:25:42.614Z,1.12
2019-01-30T07:26:42.604Z,1.13
2019-01-30T07:27:42.589Z,1.12
2019-01-30T07:28:42.570Z,1.17
2019-01-30T07:29:42.576Z,1.19
2019-01-30T07:30:42.542Z,1.17
2019-01-30T07:31:42.532Z,1.16
2019-01-30T07:32:42.614Z,1.12
2019-01-30T07:33:42.502Z,1.19
2019-01-30T07:34:42.492Z,1.14
2019-01-30T07:35:42.472Z,1.23
2019-01-30T07:36:42.459Z,1.12
2019-01-30T07:37:42.444Z,1.13
2019-01-30T07:38:42.432Z,1.23
2019-01-30T07:39:42.416Z,1.14
2019-01-30T07:40:42.402Z,1.30
2019-01-30T07:41:42.390Z,1.17
2019-01-30T07:42:42.368Z,1.26
2019-01-30T07:43:42.388Z,1.23
2019-01-30T07:44:50.593Z,1.20
2019-01-30T07:45:42.332Z,1.16
2019-01-30T07:46:42.323Z,1.17
2019-01-30T07:47:42.303Z,1.22
2019-01-30T07:48:42.291Z,1.23
2019-01-30T07:49:42.271Z,1.28
2019-01-30T07:50:42.264Z,1.23
2019-01-30T07:51:42.250Z,1.24
2019-01-30T07:52:42.234Z,1.30
2019-01-30T07:53:42.219Z,1.30
2019-01-30T07:54:42.204Z,1.30
2019-01-30T07:55:42.186Z,1.32
2019-01-30T07:56:42.174Z,1.31
2019-01-30T07:57:42.163Z,1.28
2019-01-30T07:58:42.150Z,1.37
2019-01-30T07:59:42.138Z,1.28
2019-01-30T08:00:42.120Z,1.34
2019-01-30T08:01:42.107Z,1.35
2019-01-30T08:02:52.650Z,1.44
2019-01-30T08:03:42.074Z,1.41
2019-01-30T08:04:42.064Z,1.37
2019-01-30T08:05:42.052Z,1.40
2019-01-30T08:06:42.039Z,1.42
2019-01-30T08:07:42.021Z,1.40
2019-01-30T08:08:42.002Z,1.42
2019-01-30T08:09:41.987Z,1.41
2019-01-30T08:10:41.975Z,1.38
2019-01-30T08:11:41.962Z,1.40
2019-01-30T08:12:41.950Z,1.45
2019-01-30T08:13:41.941Z,1.44
2019-01-30T08:14:41.931Z,1.41
2019-01-30T08:15:41.919Z,1.41
2019-01-30T08:16:41.896Z,1.42
2019-01-30T08:17:41.883Z,1.56
2019-01-30T08:18:41.868Z,1.53
2019-01-30T08:19:41.858Z,1.60
2019-01-30T08:20:41.847Z,1.67
2019-01-30T08:21:41.838Z,1.71
2019-01-30T08:22:41.813Z,1.74
2019-01-30T08:23:42.022Z,1.71
2019-01-30T08:24:41.794Z,1.85
2019-01-30T08:25:41.907Z,1.58
2019-01-30T08:26:41.935Z,1.78
2019-01-30T08:27:41.981Z,1.71
2019-01-30T08:28:42.086Z,1.68
2019-01-30T08:29:41.750Z,1.71
2019-01-30T08:30:42.130Z,1.73
2019-01-30T08:31:41.708Z,1.67
2019-01-30T08:32:41.850Z,1.70
2019-01-30T08:33:41.667Z,1.73
2019-01-30T08:34:41.652Z,1.71
2019-01-30T08:35:41.651Z,1.76
2019-01-30T08:36:41.624Z,1.81
2019-01-30T08:37:41.605Z,1.71
2019-01-30T08:38:41.597Z,1.70
2019-01-30T08:39:41.587Z,1.67
2019-01-30T08:40:41.575Z,1.70
2019-01-30T08:41:41.561Z,1.70
2019-01-30T08:42:41.542Z,1.68
2019-01-30T08:43:41.532Z,1.77
2019-01-30T08:44:47.042Z,1.67
2019-01-30T08:45:41.504Z,1.76
2019-01-30T08:46:41.492Z,1.70
2019-01-30T08:47:41.481Z,1.74
2019-01-30T08:48:41.498Z,1.63
2019-01-30T08:49:41.453Z,1.67
2019-01-30T08:50:41.439Z,1.68
2019-01-30T08:51:41.436Z,1.74
2019-01-30T08:52:41.408Z,1.74
2019-01-30T08:53:41.416Z,1.76
2019-01-30T08:54:41.402Z,1.68
2019-01-30T08:55:41.373Z,1.68
2019-01-30T08:56:52.428Z,1.73
2019-01-30T08:57:41.342Z,1.68
2019-01-30T08:58:41.332Z,1.70
2019-01-30T08:59:41.318Z,1.81
2019-01-30T09:00:41.304Z,1.80
2019-01-30T09:01:41.295Z,1.78
2019-01-30T09:02:41.283Z,1.74
2019-01-30T09:03:41.259Z,1.78
2019-01-30T09:04:41.252Z,1.80
2019-01-30T09:05:41.238Z,1.78
2019-01-30T09:06:41.222Z,1.78
2019-01-30T09:07:44.486Z,1.70
2019-01-30T09:08:41.201Z,1.78
2019-01-30T09:09:41.185Z,1.81
2019-01-30T09:10:41.166Z,1.68
2019-01-30T09:11:41.153Z,1.68
2019-01-30T09:12:41.142Z,1.81
2019-01-30T09:13:41.131Z,1.80
2019-01-30T09:14:41.115Z,1.87
2019-01-30T09:15:41.108Z,1.88
2019-01-30T09:16:41.094Z,2.02
2019-01-30T09:17:41.077Z,2.00
2019-01-30T09:18:41.063Z,1.91
2019-01-30T09:19:41.053Z,2.00
2019-01-30T09:20:41.039Z,1.99
2019-01-30T09:21:41.028Z,2.00
2019-01-30T09:22:41.013Z,2.04
2019-01-30T09:23:41.000Z,2.07
2019-01-30T09:24:40.980Z,2.10
2019-01-30T09:25:40.976Z,2.10
2019-01-30T09:26:40.961Z,2.07
2019-01-30T09:27:40.948Z,2.06
2019-01-30T09:28:40.935Z,2.11
2019-01-30T09:29:40.918Z,2.10
2019-01-30T09:30:40.909Z,1.97
2019-01-30T09:31:40.890Z,2.06
2019-01-30T09:32:40.881Z,2.07
2019-01-30T09:33:40.883Z,2.11
2019-01-30T09:34:40.871Z,2.10
2019-01-30T09:35:40.882Z,2.13
2019-01-30T09:36:40.827Z,2.04
2019-01-30T09:37:40.816Z,2.11
2019-01-30T09:38:40.797Z,2.06
2019-01-30T09:39:40.808Z,2.02
2019-01-30T09:40:40.781Z,2.04
2019-01-30T09:41:40.874Z,2.04
2019-01-30T09:42:40.781Z,2.11
2019-01-30T09:43:40.738Z,2.07
2019-01-30T09:44:40.739Z,2.13
2019-01-30T09:45:40.714Z,2.10
2019-01-30T09:46:40.721Z,2.15
2019-01-30T09:47:40.687Z,2.06
2019-01-30T09:48:40.676Z,2.11
2019-01-30T09:49:40.687Z,2.00
2019-01-30T09:50:40.662Z,2.10
2019-01-30T09:51:40.634Z,2.10
2019-01-30T09:52:40.645Z,2.10
2019-01-30T09:53:40.605Z,2.06
2019-01-30T09:54:40.597Z,2.04
2019-01-30T09:55:40.588Z,2.08
2019-01-30T09:56:40.720Z,2.06
2019-01-30T09:57:40.560Z,2.07
2019-01-30T09:58:40.545Z,2.11
2019-01-30T09:59:40.524Z,2.14
2019-01-30T10:00:40.520Z,2.10
2019-01-30T10:01:40.506Z,2.07
2019-01-30T10:02:40.490Z,2.15
2019-01-30T10:03:40.487Z,2.11
2019-01-30T10:04:40.471Z,2.08
2019-01-30T10:05:40.453Z,2.18
2019-01-30T10:06:40.435Z,2.14
2019-01-30T10:07:40.426Z,2.18
2019-01-30T10:08:40.415Z,2.17
2019-01-30T10:09:40.399Z,2.18
2019-01-30T10:10:40.403Z,2.20
2019-01-30T10:11:40.376Z,2.18
2019-01-30T10:12:40.365Z,2.25
2019-01-30T10:13:40.351Z,2.18
2019-01-30T10:14:40.339Z,2.36
2019-01-30T10:15:40.319Z,2.26
2019-01-30T10:16:40.317Z,2.26
2019-01-30T10:17:40.299Z,2.24
2019-01-30T10:18:40.282Z,2.17
2019-01-30T10:19:41.874Z,2.20
2019-01-30T10:20:40.266Z,2.28
2019-01-30T10:21:40.250Z,2.25
2019-01-30T10:22:40.241Z,2.31
2019-01-30T10:23:40.218Z,2.22
2019-01-30T10:24:40.205Z,2.26
2019-01-30T10:25:40.198Z,2.29
2019-01-30T10:26:40.180Z,2.36
2019-01-30T10:27:40.164Z,2.35
2019-01-30T10:28:40.153Z,2.31
2019-01-30T10:29:40.140Z,2.26
2019-01-30T10:30:40.130Z,2.32
2019-01-30T10:31:40.119Z,2.24
2019-01-30T10:32:40.103Z,2.22
2019-01-30T10:33:46.410Z,2.29
2019-01-30T10:34:40.077Z,2.31
2019-01-30T10:35:40.058Z,2.32
2019-01-30T10:36:40.052Z,2.35
2019-01-30T10:37:40.039Z,2.32
2019-01-30T10:38:40.027Z,2.33
2019-01-30T10:39:40.014Z,2.29
2019-01-30T10:40:40.000Z,2.24
2019-01-30T10:41:39.982Z,2.36
2019-01-30T10:42:39.977Z,2.38
2019-01-30T10:43:39.960Z,2.28
2019-01-30T10:44:39.947Z,2.26
2019-01-30T10:45:39.938Z,2.38
2019-01-30T10:46:39.920Z,2.35
2019-01-30T10:47:39.907Z,2.36
2019-01-30T10:48:39.914Z,2.28
2019-01-30T10:49:39.879Z,2.33
2019-01-30T10:50:39.865Z,2.25
2019-01-30T10:51:39.853Z,2.26
2019-01-30T10:52:40.445Z,2.33
2019-01-30T10:53:39.830Z,2.31
2019-01-30T10:54:39.814Z,2.32
2019-01-30T10:55:39.799Z,2.29
2019-01-30T10:56:39.787Z,2.29
2019-01-30T10:57:39.776Z,2.32
2019-01-30T10:58:39.768Z,2.18
2019-01-30T10:59:39.755Z,2.20
2019-01-30T11:00:39.740Z,2.11
2019-01-30T11:01:39.723Z,2.10
2019-01-30T11:02:39.707Z,1.95
2019-01-30T11:03:39.694Z,1.91
2019-01-30T11:04:39.691Z,1.84
2019-01-30T11:05:39.675Z,1.80
2019-01-30T11:06:39.663Z,1.67
2019-01-30T11:07:39.643Z,1.59
2019-01-30T11:08:39.629Z,1.55
2019-01-30T11:09:39.621Z,1.55
2019-01-30T11:10:39.607Z,1.52
2019-01-30T11:11:39.592Z,1.59
2019-01-30T11:12:39.577Z,1.50
2019-01-30T11:13:39.568Z,1.45
2019-01-30T11:14:41.096Z,1.37
2019-01-30T11:15:39.539Z,1.30
2019-01-30T11:16:39.536Z,1.26
2019-01-30T11:17:39.513Z,1.38
2019-01-30T11:18:39.496Z,1.31
2019-01-30T11:19:39.485Z,1.26
2019-01-30T11:20:39.473Z,1.26
2019-01-30T11:21:39.458Z,1.23
2019-01-30T11:22:39.443Z,1.28
2019-01-30T11:23:39.431Z,1.22
2019-01-30T11:24:39.416Z,1.34
2019-01-30T11:25:39.404Z,1.31
2019-01-30T11:26:39.395Z,1.19
2019-01-30T11:27:39.379Z,1.10
2019-01-30T11:28:39.363Z,1.17
2019-01-30T11:29:39.347Z,1.20
2019-01-30T11:30:39.333Z,1.10
2019-01-30T11:31:39.323Z,1.20
2019-01-30T11:32:39.309Z,1.20
2019-01-30T11:33:39.298Z,1.14
2019-01-30T11:34:39.284Z,1.17
2019-01-30T11:35:39.270Z,1.01
2019-01-30T11:36:39.257Z,1.13
2019-01-30T11:37:39.248Z,1.10
2019-01-30T11:38:39.223Z,1.19
2019-01-30T11:39:39.213Z,1.06
2019-01-30T11:40:39.203Z,1.19
2019-01-30T11:41:39.191Z,1.13
2019-01-30T11:42:39.173Z,1.16
2019-01-30T11:43:39.162Z,1.14
2019-01-30T11:44:39.149Z,1.13
2019-01-30T11:45:39.953Z,1.20
2019-01-30T11:46:39.124Z,1.14
2019-01-30T11:47:39.112Z,1.14
2019-01-30T11:48:39.097Z,1.19
2019-01-30T11:49:39.081Z,1.24
2019-01-30T11:50:39.071Z,1.22
2019-01-30T11:51:39.055Z,1.10
2019-01-30T11:52:39.034Z,1.16
2019-01-30T11:53:39.019Z,1.20
2019-01-30T11:54:39.198Z,1.13
2019-01-30T11:55:39.217Z,1.04
2019-01-30T11:56:38.982Z,1.12
2019-01-30T11:57:38.968Z,1.22
2019-01-30T11:58:38.958Z,1.20
2019-01-30T11:59:38.939Z,1.22
2019-01-30T12:00:38.933Z,1.34
2019-01-30T12:01:38.919Z,1.31
2019-01-30T12:02:47.761Z,1.40
2019-01-30T12:03:38.892Z,1.50
2019-01-30T12:04:38.879Z,1.48
2019-01-30T12:05:38.862Z,1.41
2019-01-30T12:06:38.846Z,1.42
2019-01-30T12:07:38.839Z,1.34
2019-01-30T12:08:38.825Z,1.35
2019-01-30T12:09:38.811Z,1.30
2019-01-30T12:10:38.802Z,1.28
2019-01-30T12:11:38.779Z,1.30
2019-01-30T12:12:38.857Z,1.35
2019-01-30T12:13:38.758Z,1.35
2019-01-30T12:14:38.749Z,1.37
2019-01-30T12:15:38.770Z,1.45
2019-01-30T12:16:38.715Z,1.42
2019-01-30T12:17:38.702Z,1.40
2019-01-30T12:18:38.691Z,1.35
2019-01-30T12:19:38.672Z,1.35
2019-01-30T12:20:38.660Z,1.28
2019-01-30T12:21:38.654Z,1.37
2019-01-30T12:22:38.637Z,1.40
2019-01-30T12:23:38.624Z,1.37
2019-01-30T12:24:38.615Z,1.35
2019-01-30T12:25:38.590Z,1.40
2019-01-30T12:26:38.583Z,1.28
2019-01-30T12:27:38.562Z,1.30
2019-01-30T12:28:38.562Z,1.40
2019-01-30T12:29:38.543Z,1.41
2019-01-30T12:30:38.531Z,1.40
2019-01-30T12:31:38.514Z,1.37
2019-01-30T12:32:38.503Z,1.41
2019-01-30T12:33:38.492Z,1.40
2019-01-30T12:34:38.475Z,1.40
2019-01-30T12:35:38.466Z,1.38
2019-01-30T12:36:38.450Z,1.40
2019-01-30T12:37:38.439Z,1.37
2019-01-30T12:38:38.427Z,1.42
2019-01-30T12:39:38.407Z,1.41
2019-01-30T12:40:38.394Z,1.40
2019-01-30T12:41:38.384Z,1.42
2019-01-30T12:42:38.374Z,1.34
2019-01-30T12:43:38.357Z,1.38
2019-01-30T12:44:38.340Z,1.41
2019-01-30T12:45:38.335Z,1.31
2019-01-30T12:46:38.314Z,1.38
2019-01-30T12:47:38.303Z,1.37
2019-01-30T12:48:38.296Z,1.38
2019-01-30T12:49:38.282Z,1.26
2019-01-30T12:50:38.268Z,1.34
2019-01-30T12:51:38.255Z,1.28
2019-01-30T12:52:38.240Z,1.28
2019-01-30T12:53:38.219Z,1.31
2019-01-30T12:54:38.212Z,1.35
2019-01-30T12:55:38.198Z,1.38
2019-01-30T12:56:38.184Z,1.40
2019-01-30T12:57:38.172Z,1.40
2019-01-30T12:58:38.160Z,1.45
2019-01-30T12:59:38.144Z,1.41
2019-01-30T13:00:38.125Z,1.45
2019-01-30T13:01:38.111Z,1.42
2019-01-30T13:02:38.100Z,1.52
2019-01-30T13:03:38.096Z,1.44
2019-01-30T13:04:39.100Z,1.41
2019-01-30T13:05:38.061Z,1.49
2019-01-30T13:06:38.052Z,1.41
2019-01-30T13:07:38.032Z,1.40
2019-01-30T13:08:38.020Z,1.40
2019-01-30T13:09:38.014Z,1.45
2019-01-30T13:10:38.000Z,1.48
2019-01-30T13:11:37.983Z,1.44
2019-01-30T13:12:37.971Z,1.40
2019-01-30T13:13:37.956Z,1.44
2019-01-30T13:14:37.940Z,1.56
2019-01-30T13:15:37.931Z,1.42
2019-01-30T13:16:37.918Z,1.42
2019-01-30T13:17:37.901Z,1.45
2019-01-30T13:18:37.892Z,1.37